sensor_id;sensor_type;location;lat;lon;timestamp;P1;durP1;ratioP1;P2;durP2;ratioP2
20056;SDS011;10189;49.546;7.906;2023-05-10T00:01:32;5.85;;;4.80;;
20056;SDS011;10189;49.546;7.906;2023-05-10T00:03:57;5.53;;;5.03;;
20056;SDS011;10189;49.546;7.906;2023-05-10T00:06:23;5.57;;;5.00;;
20056;SDS011;10189;49.546;7.906;2023-05-10T00:08:49;6.57;;;4.93;;
20056;SDS011;10189;49.546;7.906;2023-05-10T00:11:15;5.20;;;4.70;;
20056;SDS011;10189;49.546;7.906;2023-05-10T00:13:41;5.70;;;5.20;;
20056;SDS011;10189;49.546;7.906;2023-05-10T00:16:07;6.05;;;5.45;;
20056;SDS011;10189;49.546;7.906;2023-05-10T00:18:33;5.90;;;5.40;;
20056;SDS011;10189;49.546;7.906;2023-05-10T00:20:59;6.53;;;5.53;;
20056;SDS011;10189;49.546;7.906;2023-05-10T00:23:24;6.35;;;5.40;;
20056;SDS011;10189;49.546;7.906;2023-05-10T00:25:50;6.05;;;5.53;;
20056;SDS011;10189;49.546;7.906;2023-05-10T00:28:16;6.55;;;5.78;;
20056;SDS011;10189;49.546;7.906;2023-05-10T00:30:42;6.80;;;5.75;;
20056;SDS011;10189;49.546;7.906;2023-05-10T00:33:08;6.47;;;5.88;;
20056;SDS011;10189;49.546;7.906;2023-05-10T00:35:33;6.97;;;5.28;;
20056;SDS011;10189;49.546;7.906;2023-05-10T00:37:59;5.90;;;5.30;;
20056;SDS011;10189;49.546;7.906;2023-05-10T00:40:25;5.85;;;5.20;;
20056;SDS011;10189;49.546;7.906;2023-05-10T00:45:23;5.43;;;4.90;;
20056;SDS011;10189;49.546;7.906;2023-05-10T00:47:50;6.00;;;5.07;;
20056;SDS011;10189;49.546;7.906;2023-05-10T00:50:20;5.85;;;4.78;;
20056;SDS011;10189;49.546;7.906;2023-05-10T00:52:49;4.93;;;4.45;;
20056;SDS011;10189;49.546;7.906;2023-05-10T00:55:15;6.18;;;5.30;;
20056;SDS011;10189;49.546;7.906;2023-05-10T00:57:42;7.93;;;5.05;;
20056;SDS011;10189;49.546;7.906;2023-05-10T01:00:08;6.38;;;5.78;;
20056;SDS011;10189;49.546;7.906;2023-05-10T01:02:36;6.50;;;5.90;;
20056;SDS011;10189;49.546;7.906;2023-05-10T01:05:02;8.00;;;6.18;;
20056;SDS011;10189;49.546;7.906;2023-05-10T01:07:29;5.93;;;5.40;;
20056;SDS011;10189;49.546;7.906;2023-05-10T01:09:55;6.22;;;5.63;;
20056;SDS011;10189;49.546;7.906;2023-05-10T01:12:21;6.95;;;5.90;;
20056;SDS011;10189;49.546;7.906;2023-05-10T01:14:48;7.07;;;5.90;;
20056;SDS011;10189;49.546;7.906;2023-05-10T01:17:14;8.68;;;6.80;;
20056;SDS011;10189;49.546;7.906;2023-05-10T01:19:41;7.35;;;6.65;;
20056;SDS011;10189;49.546;7.906;2023-05-10T01:31:08;8.02;;;7.25;;
20056;SDS011;10189;49.546;7.906;2023-05-10T01:33:39;9.70;;;8.70;;
20056;SDS011;10189;49.546;7.906;2023-05-10T01:39:16;9.68;;;8.70;;
20056;SDS011;10189;49.546;7.906;2023-05-10T01:44:40;9.23;;;8.32;;
20056;SDS011;10189;49.546;7.906;2023-05-10T01:49:56;10.02;;;7.97;;
20056;SDS011;10189;49.546;7.906;2023-05-10T01:52:30;8.68;;;7.82;;
20056;SDS011;10189;49.546;7.906;2023-05-10T01:55:02;8.57;;;7.70;;
20056;SDS011;10189;49.546;7.906;2023-05-10T01:57:35;9.43;;;8.50;;
20056;SDS011;10189;49.546;7.906;2023-05-10T02:00:06;9.27;;;8.38;;
20056;SDS011;10189;49.546;7.906;2023-05-10T02:02:40;11.25;;;8.77;;
20056;SDS011;10189;49.546;7.906;2023-05-10T02:05:13;10.00;;;8.95;;
20056;SDS011;10189;49.546;7.906;2023-05-10T02:07:42;9.30;;;8.43;;
20056;SDS011;10189;49.546;7.906;2023-05-10T02:10:10;10.98;;;8.48;;
20056;SDS011;10189;49.546;7.906;2023-05-10T02:12:41;9.90;;;8.80;;
20056;SDS011;10189;49.546;7.906;2023-05-10T02:15:10;9.35;;;7.97;;
20056;SDS011;10189;49.546;7.906;2023-05-10T02:17:40;8.70;;;7.80;;
20056;SDS011;10189;49.546;7.906;2023-05-10T02:20:08;10.20;;;8.18;;
20056;SDS011;10189;49.546;7.906;2023-05-10T02:22:36;7.75;;;6.97;;
20056;SDS011;10189;49.546;7.906;2023-05-10T02:25:04;7.85;;;7.05;;
20056;SDS011;10189;49.546;7.906;2023-05-10T02:27:31;8.25;;;7.07;;
20056;SDS011;10189;49.546;7.906;2023-05-10T02:29:59;8.13;;;7.18;;
20056;SDS011;10189;49.546;7.906;2023-05-10T02:32:26;9.95;;;7.43;;
20056;SDS011;10189;49.546;7.906;2023-05-10T02:34:55;8.65;;;7.20;;
20056;SDS011;10189;49.546;7.906;2023-05-10T02:37:22;8.27;;;7.47;;
20056;SDS011;10189;49.546;7.906;2023-05-10T02:39:52;9.65;;;8.68;;
20056;SDS011;10189;49.546;7.906;2023-05-10T02:42:22;9.85;;;8.50;;
20056;SDS011;10189;49.546;7.906;2023-05-10T02:44:53;10.48;;;8.88;;
20056;SDS011;10189;49.546;7.906;2023-05-10T02:47:28;10.63;;;9.07;;
20056;SDS011;10189;49.546;7.906;2023-05-10T02:49:54;13.10;;;9.35;;
20056;SDS011;10189;49.546;7.906;2023-05-10T02:52:28;11.63;;;9.32;;
20056;SDS011;10189;49.546;7.906;2023-05-10T02:55:09;10.38;;;9.27;;
20056;SDS011;10189;49.546;7.906;2023-05-10T02:57:43;11.07;;;9.98;;
20056;SDS011;10189;49.546;7.906;2023-05-10T03:00:19;13.20;;;10.02;;
20056;SDS011;10189;49.546;7.906;2023-05-10T03:02:46;13.20;;;9.95;;
20056;SDS011;10189;49.546;7.906;2023-05-10T03:05:12;12.35;;;10.30;;
20056;SDS011;10189;49.546;7.906;2023-05-10T03:07:38;12.38;;;10.18;;
20056;SDS011;10189;49.546;7.906;2023-05-10T03:10:04;13.48;;;10.77;;
20056;SDS011;10189;49.546;7.906;2023-05-10T03:12:47;13.82;;;11.05;;
20056;SDS011;10189;49.546;7.906;2023-05-10T03:15:57;13.35;;;10.93;;
20056;SDS011;10189;49.546;7.906;2023-05-10T03:21:31;14.85;;;11.15;;
20056;SDS011;10189;49.546;7.906;2023-05-10T03:23:59;16.85;;;11.55;;
20056;SDS011;10189;49.546;7.906;2023-05-10T03:26:34;14.43;;;11.35;;
20056;SDS011;10189;49.546;7.906;2023-05-10T03:29:07;13.82;;;10.98;;
20056;SDS011;10189;49.546;7.906;2023-05-10T03:31:37;14.07;;;11.27;;
20056;SDS011;10189;49.546;7.906;2023-05-10T03:34:04;14.85;;;10.88;;
20056;SDS011;10189;49.546;7.906;2023-05-10T03:36:31;14.07;;;11.95;;
20056;SDS011;10189;49.546;7.906;2023-05-10T03:38:58;13.68;;;11.55;;
20056;SDS011;10189;49.546;7.906;2023-05-10T03:41:24;14.27;;;11.27;;
20056;SDS011;10189;49.546;7.906;2023-05-10T03:43:50;13.40;;;11.18;;
20056;SDS011;10189;49.546;7.906;2023-05-10T03:46:17;13.80;;;11.57;;
20056;SDS011;10189;49.546;7.906;2023-05-10T03:48:44;17.30;;;11.88;;
20056;SDS011;10189;49.546;7.906;2023-05-10T03:51:09;16.92;;;12.82;;
20056;SDS011;10189;49.546;7.906;2023-05-10T03:53:36;17.08;;;13.07;;
20056;SDS011;10189;49.546;7.906;2023-05-10T03:56:02;19.08;;;14.32;;
20056;SDS011;10189;49.546;7.906;2023-05-10T03:58:28;17.23;;;13.18;;
20056;SDS011;10189;49.546;7.906;2023-05-10T04:00:54;15.30;;;12.82;;
20056;SDS011;10189;49.546;7.906;2023-05-10T04:03:20;22.10;;;14.63;;
20056;SDS011;10189;49.546;7.906;2023-05-10T04:05:46;17.42;;;14.50;;
20056;SDS011;10189;49.546;7.906;2023-05-10T04:08:12;16.35;;;13.38;;
20056;SDS011;10189;49.546;7.906;2023-05-10T04:10:37;18.85;;;14.68;;
20056;SDS011;10189;49.546;7.906;2023-05-10T04:13:03;18.83;;;14.60;;
20056;SDS011;10189;49.546;7.906;2023-05-10T04:15:29;15.48;;;13.48;;
20056;SDS011;10189;49.546;7.906;2023-05-10T04:17:55;18.10;;;15.45;;
20056;SDS011;10189;49.546;7.906;2023-05-10T04:20:21;27.95;;;19.50;;
20056;SDS011;10189;49.546;7.906;2023-05-10T04:22:47;17.65;;;15.02;;
20056;SDS011;10189;49.546;7.906;2023-05-10T04:25:13;15.90;;;13.63;;
20056;SDS011;10189;49.546;7.906;2023-05-10T04:27:39;17.30;;;15.00;;
20056;SDS011;10189;49.546;7.906;2023-05-10T04:30:06;17.27;;;14.90;;
20056;SDS011;10189;49.546;7.906;2023-05-10T04:32:32;19.20;;;15.70;;
20056;SDS011;10189;49.546;7.906;2023-05-10T04:34:58;20.55;;;15.68;;
20056;SDS011;10189;49.546;7.906;2023-05-10T04:37:24;20.35;;;15.45;;
20056;SDS011;10189;49.546;7.906;2023-05-10T04:39:50;18.08;;;16.13;;
20056;SDS011;10189;49.546;7.906;2023-05-10T04:42:16;20.58;;;15.85;;
20056;SDS011;10189;49.546;7.906;2023-05-10T04:44:42;18.67;;;15.57;;
20056;SDS011;10189;49.546;7.906;2023-05-10T04:47:08;19.70;;;15.65;;
20056;SDS011;10189;49.546;7.906;2023-05-10T04:49:34;18.83;;;14.57;;
20056;SDS011;10189;49.546;7.906;2023-05-10T04:52:00;17.20;;;14.38;;
20056;SDS011;10189;49.546;7.906;2023-05-10T04:54:26;15.30;;;13.45;;
20056;SDS011;10189;49.546;7.906;2023-05-10T04:56:52;15.65;;;13.25;;
20056;SDS011;10189;49.546;7.906;2023-05-10T04:59:18;16.00;;;13.68;;
20056;SDS011;10189;49.546;7.906;2023-05-10T05:01:44;15.00;;;12.00;;
20056;SDS011;10189;49.546;7.906;2023-05-10T05:04:10;17.33;;;12.27;;
20056;SDS011;10189;49.546;7.906;2023-05-10T05:06:36;11.88;;;10.00;;
20056;SDS011;10189;49.546;7.906;2023-05-10T05:09:01;12.35;;;9.90;;
20056;SDS011;10189;49.546;7.906;2023-05-10T05:11:27;9.73;;;8.73;;
20056;SDS011;10189;49.546;7.906;2023-05-10T05:13:53;10.18;;;8.07;;
20056;SDS011;10189;49.546;7.906;2023-05-10T05:16:19;9.05;;;7.00;;
20056;SDS011;10189;49.546;7.906;2023-05-10T05:18:45;7.45;;;5.95;;
20056;SDS011;10189;49.546;7.906;2023-05-10T05:21:14;9.00;;;7.65;;
20056;SDS011;10189;49.546;7.906;2023-05-10T05:23:44;7.50;;;6.70;;
20056;SDS011;10189;49.546;7.906;2023-05-10T05:26:11;9.02;;;7.05;;
20056;SDS011;10189;49.546;7.906;2023-05-10T05:28:37;9.95;;;7.65;;
20056;SDS011;10189;49.546;7.906;2023-05-10T05:31:04;7.97;;;7.18;;
20056;SDS011;10189;49.546;7.906;2023-05-10T05:33:30;8.35;;;6.70;;
20056;SDS011;10189;49.546;7.906;2023-05-10T05:35:57;16.25;;;11.23;;
20056;SDS011;10189;49.546;7.906;2023-05-10T05:38:25;8.85;;;7.55;;
20056;SDS011;10189;49.546;7.906;2023-05-10T05:40:51;6.95;;;5.70;;
20056;SDS011;10189;49.546;7.906;2023-05-10T05:43:17;7.68;;;6.50;;
20056;SDS011;10189;49.546;7.906;2023-05-10T05:45:43;6.50;;;5.78;;
20056;SDS011;10189;49.546;7.906;2023-05-10T05:48:09;5.97;;;5.05;;
20056;SDS011;10189;49.546;7.906;2023-05-10T05:50:35;6.47;;;5.40;;
20056;SDS011;10189;49.546;7.906;2023-05-10T05:53:01;5.53;;;5.00;;
20056;SDS011;10189;49.546;7.906;2023-05-10T05:55:27;6.13;;;5.30;;
20056;SDS011;10189;49.546;7.906;2023-05-10T05:57:54;7.07;;;4.80;;
20056;SDS011;10189;49.546;7.906;2023-05-10T06:00:20;5.40;;;4.90;;
20056;SDS011;10189;49.546;7.906;2023-05-10T06:02:46;5.60;;;4.85;;
20056;SDS011;10189;49.546;7.906;2023-05-10T06:05:12;5.82;;;4.53;;
20056;SDS011;10189;49.546;7.906;2023-05-10T06:07:40;5.13;;;4.63;;
20056;SDS011;10189;49.546;7.906;2023-05-10T06:10:07;4.13;;;3.72;;
20056;SDS011;10189;49.546;7.906;2023-05-10T06:12:34;6.65;;;3.60;;
20056;SDS011;10189;49.546;7.906;2023-05-10T06:15:00;4.20;;;3.28;;
20056;SDS011;10189;49.546;7.906;2023-05-10T06:17:26;3.65;;;3.35;;
20056;SDS011;10189;49.546;7.906;2023-05-10T06:19:52;4.28;;;3.58;;
20056;SDS011;10189;49.546;7.906;2023-05-10T06:22:18;5.28;;;3.22;;
20056;SDS011;10189;49.546;7.906;2023-05-10T06:24:44;3.53;;;3.17;;
20056;SDS011;10189;49.546;7.906;2023-05-10T06:27:10;3.15;;;2.70;;
20056;SDS011;10189;49.546;7.906;2023-05-10T06:29:35;3.20;;;2.90;;
20056;SDS011;10189;49.546;7.906;2023-05-10T06:32:01;4.07;;;3.22;;
20056;SDS011;10189;49.546;7.906;2023-05-10T06:34:27;3.53;;;2.88;;
20056;SDS011;10189;49.546;7.906;2023-05-10T06:36:53;3.42;;;3.13;;
20056;SDS011;10189;49.546;7.906;2023-05-10T06:39:19;4.93;;;3.67;;
20056;SDS011;10189;49.546;7.906;2023-05-10T06:41:45;4.30;;;3.15;;
20056;SDS011;10189;49.546;7.906;2023-05-10T06:44:10;6.72;;;3.40;;
20056;SDS011;10189;49.546;7.906;2023-05-10T06:46:38;4.18;;;2.90;;
20056;SDS011;10189;49.546;7.906;2023-05-10T06:49:03;3.40;;;2.95;;
20056;SDS011;10189;49.546;7.906;2023-05-10T06:51:29;2.97;;;2.70;;
20056;SDS011;10189;49.546;7.906;2023-05-10T06:53:55;2.95;;;2.75;;
20056;SDS011;10189;49.546;7.906;2023-05-10T06:56:21;4.13;;;3.28;;
20056;SDS011;10189;49.546;7.906;2023-05-10T06:58:48;3.72;;;3.03;;
20056;SDS011;10189;49.546;7.906;2023-05-10T07:01:14;5.93;;;2.95;;
20056;SDS011;10189;49.546;7.906;2023-05-10T07:03:40;3.65;;;2.53;;
20056;SDS011;10189;49.546;7.906;2023-05-10T07:06:06;3.45;;;2.60;;
20056;SDS011;10189;49.546;7.906;2023-05-10T07:08:32;5.55;;;2.70;;
20056;SDS011;10189;49.546;7.906;2023-05-10T07:11:03;3.30;;;2.20;;
20056;SDS011;10189;49.546;7.906;2023-05-10T07:13:32;2.70;;;1.95;;
20056;SDS011;10189;49.546;7.906;2023-05-10T07:15:59;2.47;;;1.73;;
20056;SDS011;10189;49.546;7.906;2023-05-10T07:18:27;4.65;;;1.88;;
20056;SDS011;10189;49.546;7.906;2023-05-10T07:20:53;2.55;;;1.90;;
20056;SDS011;10189;49.546;7.906;2023-05-10T07:23:18;1.80;;;1.70;;
20056;SDS011;10189;49.546;7.906;2023-05-10T07:25:45;2.40;;;1.80;;
20056;SDS011;10189;49.546;7.906;2023-05-10T07:28:17;2.28;;;1.98;;
20056;SDS011;10189;49.546;7.906;2023-05-10T07:30:43;2.17;;;1.80;;
20056;SDS011;10189;49.546;7.906;2023-05-10T07:33:10;3.30;;;1.83;;
20056;SDS011;10189;49.546;7.906;2023-05-10T07:35:38;7.32;;;2.00;;
20056;SDS011;10189;49.546;7.906;2023-05-10T07:38:05;4.43;;;1.92;;
20056;SDS011;10189;49.546;7.906;2023-05-10T07:40:31;7.10;;;5.38;;
20056;SDS011;10189;49.546;7.906;2023-05-10T07:42:58;4.45;;;2.30;;
20056;SDS011;10189;49.546;7.906;2023-05-10T07:45:26;2.78;;;2.38;;
20056;SDS011;10189;49.546;7.906;2023-05-10T07:47:51;2.00;;;1.90;;
20056;SDS011;10189;49.546;7.906;2023-05-10T07:50:17;4.32;;;1.85;;
20056;SDS011;10189;49.546;7.906;2023-05-10T07:52:43;4.07;;;2.13;;
20056;SDS011;10189;49.546;7.906;2023-05-10T07:55:09;2.83;;;1.92;;
20056;SDS011;10189;49.546;7.906;2023-05-10T07:57:35;2.30;;;2.08;;
20056;SDS011;10189;49.546;7.906;2023-05-10T08:00:01;3.08;;;2.38;;
20056;SDS011;10189;49.546;7.906;2023-05-10T08:02:38;2.65;;;2.40;;
20056;SDS011;10189;49.546;7.906;2023-05-10T08:05:04;3.13;;;2.83;;
20056;SDS011;10189;49.546;7.906;2023-05-10T08:07:30;3.30;;;3.08;;
20056;SDS011;10189;49.546;7.906;2023-05-10T08:09:57;3.53;;;3.20;;
20056;SDS011;10189;49.546;7.906;2023-05-10T08:12:23;4.68;;;3.58;;
20056;SDS011;10189;49.546;7.906;2023-05-10T08:14:48;4.05;;;3.40;;
20056;SDS011;10189;49.546;7.906;2023-05-10T08:17:14;4.00;;;3.30;;
20056;SDS011;10189;49.546;7.906;2023-05-10T08:19:41;3.80;;;3.10;;
20056;SDS011;10189;49.546;7.906;2023-05-10T08:22:07;5.68;;;4.30;;
20056;SDS011;10189;49.546;7.906;2023-05-10T08:24:33;7.38;;;2.90;;
20056;SDS011;10189;49.546;7.906;2023-05-10T08:27:04;3.03;;;2.72;;
20056;SDS011;10189;49.546;7.906;2023-05-10T08:29:31;3.95;;;2.35;;
20056;SDS011;10189;49.546;7.906;2023-05-10T08:31:57;3.40;;;2.65;;
20056;SDS011;10189;49.546;7.906;2023-05-10T08:34:23;7.88;;;4.70;;
20056;SDS011;10189;49.546;7.906;2023-05-10T08:36:50;10.75;;;6.00;;
20056;SDS011;10189;49.546;7.906;2023-05-10T08:39:16;6.00;;;2.80;;
20056;SDS011;10189;49.546;7.906;2023-05-10T08:41:42;3.08;;;2.78;;
20056;SDS011;10189;49.546;7.906;2023-05-10T08:44:11;7.50;;;4.90;;
20056;SDS011;10189;49.546;7.906;2023-05-10T08:46:38;7.18;;;3.15;;
20056;SDS011;10189;49.546;7.906;2023-05-10T08:49:11;3.30;;;3.00;;
20056;SDS011;10189;49.546;7.906;2023-05-10T08:51:47;7.70;;;2.90;;
20056;SDS011;10189;49.546;7.906;2023-05-10T08:54:20;4.28;;;2.60;;
20056;SDS011;10189;49.546;7.906;2023-05-10T08:56:48;3.90;;;2.50;;
20056;SDS011;10189;49.546;7.906;2023-05-10T08:59:14;4.00;;;2.90;;
20056;SDS011;10189;49.546;7.906;2023-05-10T09:01:41;2.97;;;2.78;;
20056;SDS011;10189;49.546;7.906;2023-05-10T09:04:10;3.20;;;2.60;;
20056;SDS011;10189;49.546;7.906;2023-05-10T09:06:37;3.78;;;2.72;;
20056;SDS011;10189;49.546;7.906;2023-05-10T09:09:03;2.72;;;2.53;;
20056;SDS011;10189;49.546;7.906;2023-05-10T09:11:29;3.13;;;2.90;;
20056;SDS011;10189;49.546;7.906;2023-05-10T09:13:55;4.78;;;2.70;;
20056;SDS011;10189;49.546;7.906;2023-05-10T09:16:21;3.17;;;2.50;;
20056;SDS011;10189;49.546;7.906;2023-05-10T09:18:48;2.85;;;2.50;;
20056;SDS011;10189;49.546;7.906;2023-05-10T09:21:14;4.10;;;2.70;;
20056;SDS011;10189;49.546;7.906;2023-05-10T09:23:44;2.67;;;2.13;;
20056;SDS011;10189;49.546;7.906;2023-05-10T09:26:11;4.85;;;2.42;;
20056;SDS011;10189;49.546;7.906;2023-05-10T09:31:22;2.47;;;1.83;;
20056;SDS011;10189;49.546;7.906;2023-05-10T09:33:50;3.53;;;2.05;;
20056;SDS011;10189;49.546;7.906;2023-05-10T09:36:17;2.33;;;1.80;;
20056;SDS011;10189;49.546;7.906;2023-05-10T09:38:50;2.50;;;1.60;;
20056;SDS011;10189;49.546;7.906;2023-05-10T09:41:23;3.38;;;1.75;;
20056;SDS011;10189;49.546;7.906;2023-05-10T09:43:55;1.45;;;1.30;;
20056;SDS011;10189;49.546;7.906;2023-05-10T09:46:21;1.88;;;1.60;;
20056;SDS011;10189;49.546;7.906;2023-05-10T09:48:47;2.45;;;1.60;;
20056;SDS011;10189;49.546;7.906;2023-05-10T09:51:20;2.08;;;1.52;;
20056;SDS011;10189;49.546;7.906;2023-05-10T09:53:48;2.15;;;1.40;;
20056;SDS011;10189;49.546;7.906;2023-05-10T09:56:42;3.67;;;1.60;;
20056;SDS011;10189;49.546;7.906;2023-05-10T09:59:11;4.80;;;1.77;;
20056;SDS011;10189;49.546;7.906;2023-05-10T10:01:38;1.73;;;1.33;;
20056;SDS011;10189;49.546;7.906;2023-05-10T10:04:06;1.65;;;1.52;;
20056;SDS011;10189;49.546;7.906;2023-05-10T10:06:37;2.85;;;1.50;;
20056;SDS011;10189;49.546;7.906;2023-05-10T10:09:05;3.33;;;1.50;;
20056;SDS011;10189;49.546;7.906;2023-05-10T10:11:35;2.70;;;1.40;;
20056;SDS011;10189;49.546;7.906;2023-05-10T10:14:04;2.08;;;1.40;;
20056;SDS011;10189;49.546;7.906;2023-05-10T10:16:31;2.45;;;1.65;;
20056;SDS011;10189;49.546;7.906;2023-05-10T10:18:58;3.88;;;1.58;;
20056;SDS011;10189;49.546;7.906;2023-05-10T10:21:24;2.75;;;1.10;;
20056;SDS011;10189;49.546;7.906;2023-05-10T10:23:50;2.15;;;1.45;;
20056;SDS011;10189;49.546;7.906;2023-05-10T10:26:19;2.28;;;1.40;;
20056;SDS011;10189;49.546;7.906;2023-05-10T10:34:27;1.50;;;1.20;;
20056;SDS011;10189;49.546;7.906;2023-05-10T10:36:55;1.92;;;1.25;;
20056;SDS011;10189;49.546;7.906;2023-05-10T10:39:23;2.40;;;1.17;;
20056;SDS011;10189;49.546;7.906;2023-05-10T10:41:54;2.20;;;1.25;;
20056;SDS011;10189;49.546;7.906;2023-05-10T10:52:13;6.22;;;1.27;;
20056;SDS011;10189;49.546;7.906;2023-05-10T10:57:45;3.55;;;1.10;;
20056;SDS011;10189;49.546;7.906;2023-05-10T11:03:08;2.10;;;1.20;;
20056;SDS011;10189;49.546;7.906;2023-05-10T11:13:46;3.95;;;1.25;;
20056;SDS011;10189;49.546;7.906;2023-05-10T11:21:33;6.22;;;1.10;;
20056;SDS011;10189;49.546;7.906;2023-05-10T11:24:13;4.85;;;1.42;;
20056;SDS011;10189;49.546;7.906;2023-05-10T11:26:41;4.20;;;1.38;;
20056;SDS011;10189;49.546;7.906;2023-05-10T11:29:08;4.72;;;1.17;;
20056;SDS011;10189;49.546;7.906;2023-05-10T11:31:34;2.35;;;1.60;;
20056;SDS011;10189;49.546;7.906;2023-05-10T11:34:06;3.35;;;2.08;;
20056;SDS011;10189;49.546;7.906;2023-05-10T11:36:34;3.47;;;1.40;;
20056;SDS011;10189;49.546;7.906;2023-05-10T11:39:01;11.82;;;3.30;;
20056;SDS011;10189;49.546;7.906;2023-05-10T11:41:29;4.20;;;1.73;;
20056;SDS011;10189;49.546;7.906;2023-05-10T11:43:56;4.43;;;1.90;;
20056;SDS011;10189;49.546;7.906;2023-05-10T11:46:24;5.30;;;1.70;;
20056;SDS011;10189;49.546;7.906;2023-05-10T11:48:53;3.10;;;1.50;;
20056;SDS011;10189;49.546;7.906;2023-05-10T11:51:23;7.57;;;1.30;;
20056;SDS011;10189;49.546;7.906;2023-05-10T11:53:52;3.30;;;1.50;;
20056;SDS011;10189;49.546;7.906;2023-05-10T11:56:20;5.47;;;1.40;;
20056;SDS011;10189;49.546;7.906;2023-05-10T11:58:52;3.30;;;1.60;;
20056;SDS011;10189;49.546;7.906;2023-05-10T12:01:22;34.28;;;11.75;;
20056;SDS011;10189;49.546;7.906;2023-05-10T12:03:52;15.95;;;5.28;;
20056;SDS011;10189;49.546;7.906;2023-05-10T12:06:26;3.63;;;1.10;;
20056;SDS011;10189;49.546;7.906;2023-05-10T12:08:56;5.82;;;1.52;;
20056;SDS011;10189;49.546;7.906;2023-05-10T12:11:26;58.70;;;16.38;;
20056;SDS011;10189;49.546;7.906;2023-05-10T12:13:54;13.85;;;3.65;;
20056;SDS011;10189;49.546;7.906;2023-05-10T12:16:24;13.20;;;3.53;;
20056;SDS011;10189;49.546;7.906;2023-05-10T12:18:57;3.00;;;1.38;;
20056;SDS011;10189;49.546;7.906;2023-05-10T12:21:26;2.17;;;1.00;;
20056;SDS011;10189;49.546;7.906;2023-05-10T12:23:58;2.00;;;0.90;;
20056;SDS011;10189;49.546;7.906;2023-05-10T12:26:27;5.00;;;1.40;;
20056;SDS011;10189;49.546;7.906;2023-05-10T12:28:54;2.65;;;1.02;;
20056;SDS011;10189;49.546;7.906;2023-05-10T12:34:32;2.47;;;0.80;;
20056;SDS011;10189;49.546;7.906;2023-05-10T12:37:02;3.70;;;1.10;;
20056;SDS011;10189;49.546;7.906;2023-05-10T12:39:38;3.97;;;0.93;;
20056;SDS011;10189;49.546;7.906;2023-05-10T12:42:09;2.92;;;0.77;;
20056;SDS011;10189;49.546;7.906;2023-05-10T12:44:35;2.10;;;0.88;;
20056;SDS011;10189;49.546;7.906;2023-05-10T12:47:01;1.98;;;1.02;;
20056;SDS011;10189;49.546;7.906;2023-05-10T12:49:27;5.85;;;3.40;;
20056;SDS011;10189;49.546;7.906;2023-05-10T12:51:53;6.30;;;1.05;;
20056;SDS011;10189;49.546;7.906;2023-05-10T12:54:18;1.55;;;0.85;;
20056;SDS011;10189;49.546;7.906;2023-05-10T12:56:44;3.65;;;0.75;;
20056;SDS011;10189;49.546;7.906;2023-05-10T12:59:10;1.13;;;0.70;;
20056;SDS011;10189;49.546;7.906;2023-05-10T13:01:39;5.13;;;1.52;;
20056;SDS011;10189;49.546;7.906;2023-05-10T13:04:06;2.63;;;0.90;;
20056;SDS011;10189;49.546;7.906;2023-05-10T13:06:32;3.60;;;1.20;;
20056;SDS011;10189;49.546;7.906;2023-05-10T13:08:58;0.88;;;0.60;;
20056;SDS011;10189;49.546;7.906;2023-05-10T13:11:24;2.83;;;1.10;;
20056;SDS011;10189;49.546;7.906;2023-05-10T13:13:50;2.35;;;1.00;;
20056;SDS011;10189;49.546;7.906;2023-05-10T13:16:16;3.90;;;0.82;;
20056;SDS011;10189;49.546;7.906;2023-05-10T13:18:42;5.07;;;0.98;;
20056;SDS011;10189;49.546;7.906;2023-05-10T13:21:08;4.15;;;1.05;;
20056;SDS011;10189;49.546;7.906;2023-05-10T13:23:34;3.60;;;0.85;;
20056;SDS011;10189;49.546;7.906;2023-05-10T13:26:00;3.35;;;1.17;;
20056;SDS011;10189;49.546;7.906;2023-05-10T13:28:26;1.95;;;0.93;;
20056;SDS011;10189;49.546;7.906;2023-05-10T13:30:52;2.47;;;0.98;;
20056;SDS011;10189;49.546;7.906;2023-05-10T13:33:18;2.95;;;1.00;;
20056;SDS011;10189;49.546;7.906;2023-05-10T13:35:44;1.42;;;0.88;;
20056;SDS011;10189;49.546;7.906;2023-05-10T13:38:10;3.13;;;1.13;;
20056;SDS011;10189;49.546;7.906;2023-05-10T13:40:37;3.90;;;1.05;;
20056;SDS011;10189;49.546;7.906;2023-05-10T13:43:03;2.65;;;0.85;;
20056;SDS011;10189;49.546;7.906;2023-05-10T13:45:29;3.28;;;0.70;;
20056;SDS011;10189;49.546;7.906;2023-05-10T13:47:55;1.10;;;0.82;;
20056;SDS011;10189;49.546;7.906;2023-05-10T13:50:20;2.63;;;1.08;;
20056;SDS011;10189;49.546;7.906;2023-05-10T13:52:47;0.90;;;0.70;;
20056;SDS011;10189;49.546;7.906;2023-05-10T13:55:12;2.22;;;1.20;;
20056;SDS011;10189;49.546;7.906;2023-05-10T13:57:38;2.50;;;0.95;;
20056;SDS011;10189;49.546;7.906;2023-05-10T14:00:04;2.53;;;0.80;;
20056;SDS011;10189;49.546;7.906;2023-05-10T14:02:33;1.42;;;0.85;;
20056;SDS011;10189;49.546;7.906;2023-05-10T14:04:59;1.77;;;0.75;;
20056;SDS011;10189;49.546;7.906;2023-05-10T14:07:25;2.88;;;0.90;;
20056;SDS011;10189;49.546;7.906;2023-05-10T14:09:51;1.40;;;0.85;;
20056;SDS011;10189;49.546;7.906;2023-05-10T14:12:17;3.10;;;0.90;;
20056;SDS011;10189;49.546;7.906;2023-05-10T14:14:43;1.95;;;0.55;;
20056;SDS011;10189;49.546;7.906;2023-05-10T14:17:08;6.72;;;0.80;;
20056;SDS011;10189;49.546;7.906;2023-05-10T14:19:35;1.30;;;0.90;;
20056;SDS011;10189;49.546;7.906;2023-05-10T14:22:01;3.78;;;0.90;;
20056;SDS011;10189;49.546;7.906;2023-05-10T14:24:27;2.25;;;0.63;;
20056;SDS011;10189;49.546;7.906;2023-05-10T14:26:52;2.53;;;0.82;;
20056;SDS011;10189;49.546;7.906;2023-05-10T14:29:19;1.55;;;0.80;;
20056;SDS011;10189;49.546;7.906;2023-05-10T14:31:46;2.45;;;0.90;;
20056;SDS011;10189;49.546;7.906;2023-05-10T14:34:12;1.50;;;0.80;;
20056;SDS011;10189;49.546;7.906;2023-05-10T14:36:38;2.58;;;0.80;;
20056;SDS011;10189;49.546;7.906;2023-05-10T14:39:04;2.88;;;0.80;;
20056;SDS011;10189;49.546;7.906;2023-05-10T14:41:31;2.65;;;0.80;;
20056;SDS011;10189;49.546;7.906;2023-05-10T14:43:57;1.88;;;0.60;;
20056;SDS011;10189;49.546;7.906;2023-05-10T14:46:23;2.10;;;0.85;;
20056;SDS011;10189;49.546;7.906;2023-05-10T14:48:49;1.50;;;0.70;;
20056;SDS011;10189;49.546;7.906;2023-05-10T14:51:15;3.80;;;0.70;;
20056;SDS011;10189;49.546;7.906;2023-05-10T14:53:42;2.75;;;0.70;;
20056;SDS011;10189;49.546;7.906;2023-05-10T14:56:07;1.92;;;0.60;;
20056;SDS011;10189;49.546;7.906;2023-05-10T14:58:33;1.75;;;0.63;;
20056;SDS011;10189;49.546;7.906;2023-05-10T15:00:59;1.05;;;0.60;;
20056;SDS011;10189;49.546;7.906;2023-05-10T15:03:25;2.83;;;0.85;;
20056;SDS011;10189;49.546;7.906;2023-05-10T15:05:51;1.45;;;0.65;;
20056;SDS011;10189;49.546;7.906;2023-05-10T15:08:18;2.38;;;0.60;;
20056;SDS011;10189;49.546;7.906;2023-05-10T15:10:44;0.82;;;0.50;;
20056;SDS011;10189;49.546;7.906;2023-05-10T15:13:09;1.00;;;0.50;;
20056;SDS011;10189;49.546;7.906;2023-05-10T15:15:36;1.98;;;0.60;;
20056;SDS011;10189;49.546;7.906;2023-05-10T15:18:02;2.17;;;0.63;;
20056;SDS011;10189;49.546;7.906;2023-05-10T15:20:29;1.30;;;0.68;;
20056;SDS011;10189;49.546;7.906;2023-05-10T15:22:55;2.35;;;0.60;;
20056;SDS011;10189;49.546;7.906;2023-05-10T15:25:21;1.15;;;0.80;;
20056;SDS011;10189;49.546;7.906;2023-05-10T15:27:48;1.27;;;0.60;;
20056;SDS011;10189;49.546;7.906;2023-05-10T15:30:14;0.95;;;0.70;;
20056;SDS011;10189;49.546;7.906;2023-05-10T15:32:41;2.55;;;0.80;;
20056;SDS011;10189;49.546;7.906;2023-05-10T15:35:07;0.95;;;0.65;;
20056;SDS011;10189;49.546;7.906;2023-05-10T15:37:35;1.40;;;0.70;;
20056;SDS011;10189;49.546;7.906;2023-05-10T15:40:01;4.60;;;0.80;;
20056;SDS011;10189;49.546;7.906;2023-05-10T15:42:28;5.13;;;0.75;;
20056;SDS011;10189;49.546;7.906;2023-05-10T15:44:55;1.17;;;0.63;;
20056;SDS011;10189;49.546;7.906;2023-05-10T15:47:21;2.28;;;0.50;;